sensor_id;sensor_type;location;lat;lon;timestamp;temperature;humidity
75457;SHT31;64036;48.266;14.192;2022-10-31T00:02:22;10.40;88.10
75457;SHT31;64036;48.266;14.192;2022-10-31T00:04:48;10.40;88.15
75457;SHT31;64036;48.266;14.192;2022-10-31T00:07:14;10.40;88.20
75457;SHT31;64036;48.266;14.192;2022-10-31T00:09:39;10.41;88.27
75457;SHT31;64036;48.266;14.192;2022-10-31T00:12:05;10.42;88.33
75457;SHT31;64036;48.266;14.192;2022-10-31T00:14:30;10.42;88.31
75457;SHT31;64036;48.266;14.192;2022-10-31T00:16:56;10.42;88.30
75457;SHT31;64036;48.266;14.192;2022-10-31T00:19:21;10.42;88.30
75457;SHT31;64036;48.266;14.192;2022-10-31T00:21:47;10.41;88.31
75457;SHT31;64036;48.266;14.192;2022-10-31T00:24:12;10.39;88.24
75457;SHT31;64036;48.266;14.192;2022-10-31T00:26:38;10.36;88.22
75457;SHT31;64036;48.266;14.192;2022-10-31T00:29:04;10.37;88.25
75457;SHT31;64036;48.266;14.192;2022-10-31T00:31:29;10.38;88.20
75457;SHT31;64036;48.266;14.192;2022-10-31T00:33:55;10.37;88.13
75457;SHT31;64036;48.266;14.192;2022-10-31T00:36:22;10.35;88.11
75457;SHT31;64036;48.266;14.192;2022-10-31T00:38:48;10.33;88.13
75457;SHT31;64036;48.266;14.192;2022-10-31T00:41:14;10.35;88.20
75457;SHT31;64036;48.266;14.192;2022-10-31T00:43:42;10.35;88.20
75457;SHT31;64036;48.266;14.192;2022-10-31T00:46:09;10.37;88.20
75457;SHT31;64036;48.266;14.192;2022-10-31T00:48:36;10.32;88.23
75457;SHT31;64036;48.266;14.192;2022-10-31T00:51:01;10.29;88.28
75457;SHT31;64036;48.266;14.192;2022-10-31T00:53:27;10.26;88.23
75457;SHT31;64036;48.266;14.192;2022-10-31T00:55:52;10.29;88.37
75457;SHT31;64036;48.266;14.192;2022-10-31T00:58:18;10.32;88.37
75457;SHT31;64036;48.266;14.192;2022-10-31T01:00:44;10.30;88.21
75457;SHT31;64036;48.266;14.192;2022-10-31T01:03:15;10.29;88.22
75457;SHT31;64036;48.266;14.192;2022-10-31T01:05:41;10.29;88.24
75457;SHT31;64036;48.266;14.192;2022-10-31T01:08:07;10.30;88.28
75457;SHT31;64036;48.266;14.192;2022-10-31T01:10:32;10.29;88.34
75457;SHT31;64036;48.266;14.192;2022-10-31T01:12:58;10.30;88.31
75457;SHT31;64036;48.266;14.192;2022-10-31T01:15:23;10.27;88.38
75457;SHT31;64036;48.266;14.192;2022-10-31T01:17:49;10.28;88.42
75457;SHT31;64036;48.266;14.192;2022-10-31T01:20:15;10.31;88.40
75457;SHT31;64036;48.266;14.192;2022-10-31T01:22:42;10.33;88.37
75457;SHT31;64036;48.266;14.192;2022-10-31T01:25:08;10.33;88.30
75457;SHT31;64036;48.266;14.192;2022-10-31T01:27:34;10.33;88.33
75457;SHT31;64036;48.266;14.192;2022-10-31T01:30:00;10.33;88.35
75457;SHT31;64036;48.266;14.192;2022-10-31T01:32:26;10.33;88.40
75457;SHT31;64036;48.266;14.192;2022-10-31T01:34:54;10.32;88.43
75457;SHT31;64036;48.266;14.192;2022-10-31T01:37:20;10.27;88.56
75457;SHT31;64036;48.266;14.192;2022-10-31T01:39:47;10.23;88.60
75457;SHT31;64036;48.266;14.192;2022-10-31T01:42:20;10.23;88.68
75457;SHT31;64036;48.266;14.192;2022-10-31T01:44:52;10.23;88.70
75457;SHT31;64036;48.266;14.192;2022-10-31T01:47:41;10.22;88.72
75457;SHT31;64036;48.266;14.192;2022-10-31T01:50:12;10.22;88.80
75457;SHT31;64036;48.266;14.192;2022-10-31T01:52:59;10.24;88.90
75457;SHT31;64036;48.266;14.192;2022-10-31T01:55:28;10.28;88.89
75457;SHT31;64036;48.266;14.192;2022-10-31T01:57:59;10.31;88.87
75457;SHT31;64036;48.266;14.192;2022-10-31T02:00:31;10.26;89.06
75457;SHT31;64036;48.266;14.192;2022-10-31T02:02:57;10.18;89.24
75457;SHT31;64036;48.266;14.192;2022-10-31T02:05:25;10.14;89.34
75457;SHT31;64036;48.266;14.192;2022-10-31T02:10:30;10.12;89.46
75457;SHT31;64036;48.266;14.192;2022-10-31T02:12:58;10.09;89.51
75457;SHT31;64036;48.266;14.192;2022-10-31T02:15:27;10.07;89.55
75457;SHT31;64036;48.266;14.192;2022-10-31T02:17:54;10.06;89.65
75457;SHT31;64036;48.266;14.192;2022-10-31T02:20:20;10.02;89.80
75457;SHT31;64036;48.266;14.192;2022-10-31T02:31:46;10.10;89.70
75457;SHT31;64036;48.266;14.192;2022-10-31T02:48:33;10.00;90.26
75457;SHT31;64036;48.266;14.192;2022-10-31T02:51:03;9.99;90.38
75457;SHT31;64036;48.266;14.192;2022-10-31T02:53:33;9.98;90.56
75457;SHT31;64036;48.266;14.192;2022-10-31T02:58:33;9.97;90.66
75457;SHT31;64036;48.266;14.192;2022-10-31T03:09:38;10.06;90.61
75457;SHT31;64036;48.266;14.192;2022-10-31T03:12:25;10.10;90.51
75457;SHT31;64036;48.266;14.192;2022-10-31T03:20:34;10.12;90.48
75457;SHT31;64036;48.266;14.192;2022-10-31T03:23:08;10.12;90.50
75457;SHT31;64036;48.266;14.192;2022-10-31T03:25:39;10.14;90.50
75457;SHT31;64036;48.266;14.192;2022-10-31T03:28:07;10.18;90.44
75457;SHT31;64036;48.266;14.192;2022-10-31T03:30:35;10.16;90.41
75457;SHT31;64036;48.266;14.192;2022-10-31T03:33:07;10.14;90.40
75457;SHT31;64036;48.266;14.192;2022-10-31T03:35:39;10.15;90.41
75457;SHT31;64036;48.266;14.192;2022-10-31T03:38:08;10.16;90.39
75457;SHT31;64036;48.266;14.192;2022-10-31T03:40:36;10.15;90.35
75457;SHT31;64036;48.266;14.192;2022-10-31T03:43:04;10.18;90.40
75457;SHT31;64036;48.266;14.192;2022-10-31T03:45:39;10.21;90.38
75457;SHT31;64036;48.266;14.192;2022-10-31T03:48:09;10.19;90.38
75457;SHT31;64036;48.266;14.192;2022-10-31T03:53:32;10.15;90.38
75457;SHT31;64036;48.266;14.192;2022-10-31T03:59:14;10.22;90.46
75457;SHT31;64036;48.266;14.192;2022-10-31T04:01:49;10.28;90.46
75457;SHT31;64036;48.266;14.192;2022-10-31T04:04:19;10.30;90.33
75457;SHT31;64036;48.266;14.192;2022-10-31T04:06:45;10.28;90.23
75457;SHT31;64036;48.266;14.192;2022-10-31T04:09:13;10.27;90.29
75457;SHT31;64036;48.266;14.192;2022-10-31T04:11:40;10.25;90.30
75457;SHT31;64036;48.266;14.192;2022-10-31T04:14:13;10.23;90.30
75457;SHT31;64036;48.266;14.192;2022-10-31T04:16:40;10.23;90.31
75457;SHT31;64036;48.266;14.192;2022-10-31T04:19:09;10.22;90.33
75457;SHT31;64036;48.266;14.192;2022-10-31T04:21:35;10.21;90.37
75457;SHT31;64036;48.266;14.192;2022-10-31T04:24:01;10.19;90.40
75457;SHT31;64036;48.266;14.192;2022-10-31T04:26:26;10.17;90.49
75457;SHT31;64036;48.266;14.192;2022-10-31T04:28:52;10.15;90.50
75457;SHT31;64036;48.266;14.192;2022-10-31T04:31:17;10.16;90.50
75457;SHT31;64036;48.266;14.192;2022-10-31T04:33:43;10.17;90.47
75457;SHT31;64036;48.266;14.192;2022-10-31T04:36:09;10.17;90.40
75457;SHT31;64036;48.266;14.192;2022-10-31T04:38:35;10.18;90.41
75457;SHT31;64036;48.266;14.192;2022-10-31T04:41:00;10.21;90.39
75457;SHT31;64036;48.266;14.192;2022-10-31T04:43:26;10.23;90.31
75457;SHT31;64036;48.266;14.192;2022-10-31T04:45:52;10.26;90.33
75457;SHT31;64036;48.266;14.192;2022-10-31T04:48:17;10.31;90.40
75457;SHT31;64036;48.266;14.192;2022-10-31T04:50:43;10.36;90.34
75457;SHT31;64036;48.266;14.192;2022-10-31T04:53:08;10.40;90.31
75457;SHT31;64036;48.266;14.192;2022-10-31T04:55:35;10.44;90.36
75457;SHT31;64036;48.266;14.192;2022-10-31T04:58:01;10.44;90.19
75457;SHT31;64036;48.266;14.192;2022-10-31T05:00:27;10.45;90.19
75457;SHT31;64036;48.266;14.192;2022-10-31T05:02:54;10.47;90.12
75457;SHT31;64036;48.266;14.192;2022-10-31T05:05:26;10.46;90.14
75457;SHT31;64036;48.266;14.192;2022-10-31T05:07:56;10.49;90.16
75457;SHT31;64036;48.266;14.192;2022-10-31T05:10:23;10.51;90.17
75457;SHT31;64036;48.266;14.192;2022-10-31T05:12:52;10.54;90.13
75457;SHT31;64036;48.266;14.192;2022-10-31T05:15:21;10.55;90.11
75457;SHT31;64036;48.266;14.192;2022-10-31T05:17:48;10.57;90.05
75457;SHT31;64036;48.266;14.192;2022-10-31T05:20:15;10.58;90.00
75457;SHT31;64036;48.266;14.192;2022-10-31T05:22:44;10.59;89.99
75457;SHT31;64036;48.266;14.192;2022-10-31T05:25:15;10.62;89.93
75457;SHT31;64036;48.266;14.192;2022-10-31T05:27:42;10.62;89.91
75457;SHT31;64036;48.266;14.192;2022-10-31T05:30:11;10.63;89.78
75457;SHT31;64036;48.266;14.192;2022-10-31T05:32:40;10.62;89.71
75457;SHT31;64036;48.266;14.192;2022-10-31T05:35:11;10.63;89.75
75457;SHT31;64036;48.266;14.192;2022-10-31T05:37:40;10.64;89.75
75457;SHT31;64036;48.266;14.192;2022-10-31T05:40:06;10.66;89.73
75457;SHT31;64036;48.266;14.192;2022-10-31T05:42:35;10.66;89.70
75457;SHT31;64036;48.266;14.192;2022-10-31T05:45:01;10.67;89.70
75457;SHT31;64036;48.266;14.192;2022-10-31T05:47:26;10.67;89.67
75457;SHT31;64036;48.266;14.192;2022-10-31T05:49:52;10.68;89.62
75457;SHT31;64036;48.266;14.192;2022-10-31T05:52:17;10.68;89.54
75457;SHT31;64036;48.266;14.192;2022-10-31T05:54:43;10.69;89.50
75457;SHT31;64036;48.266;14.192;2022-10-31T05:57:09;10.69;89.48
75457;SHT31;64036;48.266;14.192;2022-10-31T05:59:34;10.71;89.47
75457;SHT31;64036;48.266;14.192;2022-10-31T06:02:00;10.71;89.41
75457;SHT31;64036;48.266;14.192;2022-10-31T06:04:25;10.70;89.43
75457;SHT31;64036;48.266;14.192;2022-10-31T06:06:51;10.71;89.45
75457;SHT31;64036;48.266;14.192;2022-10-31T06:09:17;10.69;89.41
75457;SHT31;64036;48.266;14.192;2022-10-31T06:11:42;10.68;89.48
75457;SHT31;64036;48.266;14.192;2022-10-31T06:14:08;10.69;89.51
75457;SHT31;64036;48.266;14.192;2022-10-31T06:16:33;10.68;89.40
75457;SHT31;64036;48.266;14.192;2022-10-31T06:18:59;10.68;89.30
75457;SHT31;64036;48.266;14.192;2022-10-31T06:21:24;10.68;89.29
75457;SHT31;64036;48.266;14.192;2022-10-31T06:23:50;10.69;89.26
75457;SHT31;64036;48.266;14.192;2022-10-31T06:26:16;10.71;89.27
75457;SHT31;64036;48.266;14.192;2022-10-31T06:28:42;10.72;89.18
75457;SHT31;64036;48.266;14.192;2022-10-31T06:31:07;10.72;89.11
75457;SHT31;64036;48.266;14.192;2022-10-31T06:33:33;10.71;89.06
75457;SHT31;64036;48.266;14.192;2022-10-31T06:35:59;10.70;89.00
75457;SHT31;64036;48.266;14.192;2022-10-31T06:38:26;10.70;89.04
75457;SHT31;64036;48.266;14.192;2022-10-31T06:40:52;10.73;89.11
75457;SHT31;64036;48.266;14.192;2022-10-31T06:43:19;10.76;89.09
75457;SHT31;64036;48.266;14.192;2022-10-31T06:45:46;10.79;88.95
75457;SHT31;64036;48.266;14.192;2022-10-31T06:48:12;10.78;88.86
75457;SHT31;64036;48.266;14.192;2022-10-31T06:50:37;10.79;88.91
75457;SHT31;64036;48.266;14.192;2022-10-31T06:53:03;10.80;88.82
75457;SHT31;64036;48.266;14.192;2022-10-31T06:55:29;10.81;88.81
75457;SHT31;64036;48.266;14.192;2022-10-31T06:57:56;10.84;88.83
75457;SHT31;64036;48.266;14.192;2022-10-31T07:00:24;10.87;88.80
75457;SHT31;64036;48.266;14.192;2022-10-31T07:02:55;10.89;88.73
75457;SHT31;64036;48.266;14.192;2022-10-31T07:05:22;10.91;88.89
75457;SHT31;64036;48.266;14.192;2022-10-31T07:07:52;10.96;88.93
75457;SHT31;64036;48.266;14.192;2022-10-31T07:10:20;10.99;88.97
75457;SHT31;64036;48.266;14.192;2022-10-31T07:12:46;11.07;89.07
75457;SHT31;64036;48.266;14.192;2022-10-31T07:15:11;11.12;88.92
75457;SHT31;64036;48.266;14.192;2022-10-31T07:17:37;11.13;88.86
75457;SHT31;64036;48.266;14.192;2022-10-31T07:20:02;11.15;88.86
75457;SHT31;64036;48.266;14.192;2022-10-31T07:22:33;11.13;88.73
75457;SHT31;64036;48.266;14.192;2022-10-31T07:25:02;11.12;88.70
75457;SHT31;64036;48.266;14.192;2022-10-31T07:27:28;11.10;88.73
75457;SHT31;64036;48.266;14.192;2022-10-31T07:30:00;11.12;88.80
75457;SHT31;64036;48.266;14.192;2022-10-31T07:32:26;11.15;88.87
75457;SHT31;64036;48.266;14.192;2022-10-31T07:34:51;11.23;88.96
75457;SHT31;64036;48.266;14.192;2022-10-31T07:37:17;11.27;88.78
75457;SHT31;64036;48.266;14.192;2022-10-31T07:39:42;11.32;88.77
75457;SHT31;64036;48.266;14.192;2022-10-31T07:42:08;11.34;88.52
75457;SHT31;64036;48.266;14.192;2022-10-31T07:44:33;11.38;88.40
75457;SHT31;64036;48.266;14.192;2022-10-31T07:46:59;11.38;88.29
75457;SHT31;64036;48.266;14.192;2022-10-31T07:49:24;11.40;88.41
75457;SHT31;64036;48.266;14.192;2022-10-31T07:51:50;11.43;88.32
75457;SHT31;64036;48.266;14.192;2022-10-31T07:54:16;11.41;88.15
75457;SHT31;64036;48.266;14.192;2022-10-31T07:56:41;11.42;88.24
75457;SHT31;64036;48.266;14.192;2022-10-31T07:59:07;11.47;88.31
75457;SHT31;64036;48.266;14.192;2022-10-31T08:01:33;11.51;88.13
75457;SHT31;64036;48.266;14.192;2022-10-31T08:03:58;11.51;87.99
75457;SHT31;64036;48.266;14.192;2022-10-31T08:06:24;11.48;87.83
75457;SHT31;64036;48.266;14.192;2022-10-31T08:08:49;11.52;87.81
75457;SHT31;64036;48.266;14.192;2022-10-31T08:11:15;11.56;87.60
75457;SHT31;64036;48.266;14.192;2022-10-31T08:13:40;11.59;87.74
75457;SHT31;64036;48.266;14.192;2022-10-31T08:16:07;11.64;87.77
75457;SHT31;64036;48.266;14.192;2022-10-31T08:18:33;11.63;87.66
75457;SHT31;64036;48.266;14.192;2022-10-31T08:20:58;11.66;87.79
75457;SHT31;64036;48.266;14.192;2022-10-31T08:23:24;11.70;87.62
75457;SHT31;64036;48.266;14.192;2022-10-31T08:25:50;11.70;87.66
75457;SHT31;64036;48.266;14.192;2022-10-31T08:28:15;11.78;87.79
75457;SHT31;64036;48.266;14.192;2022-10-31T08:30:41;11.85;87.62
75457;SHT31;64036;48.266;14.192;2022-10-31T08:33:11;11.89;87.55
75457;SHT31;64036;48.266;14.192;2022-10-31T08:35:39;11.89;87.20
75457;SHT31;64036;48.266;14.192;2022-10-31T08:38:05;11.92;87.20
75457;SHT31;64036;48.266;14.192;2022-10-31T08:40:32;11.93;87.00
75457;SHT31;64036;48.266;14.192;2022-10-31T08:43:33;11.96;86.96
75457;SHT31;64036;48.266;14.192;2022-10-31T08:45:52;12.03;87.09
75457;SHT31;64036;48.266;14.192;2022-10-31T08:48:19;12.11;87.13
75457;SHT31;64036;48.266;14.192;2022-10-31T08:50:46;12.16;87.02
75457;SHT31;64036;48.266;14.192;2022-10-31T08:53:13;12.21;87.08
75457;SHT31;64036;48.266;14.192;2022-10-31T08:55:44;12.27;86.90
75457;SHT31;64036;48.266;14.192;2022-10-31T08:58:15;12.27;86.64
75457;SHT31;64036;48.266;14.192;2022-10-31T09:00:44;12.28;86.62
75457;SHT31;64036;48.266;14.192;2022-10-31T09:03:21;12.28;86.32
75457;SHT31;64036;48.266;14.192;2022-10-31T09:05:49;12.27;85.99
75457;SHT31;64036;48.266;14.192;2022-10-31T09:08:16;12.26;85.87
75457;SHT31;64036;48.266;14.192;2022-10-31T09:10:42;12.26;85.67
75457;SHT31;64036;48.266;14.192;2022-10-31T09:13:10;12.33;85.60
75457;SHT31;64036;48.266;14.192;2022-10-31T09:15:40;12.38;85.78
75457;SHT31;64036;48.266;14.192;2022-10-31T09:18:09;12.41;85.83
75457;SHT31;64036;48.266;14.192;2022-10-31T09:20:38;12.43;85.60
75457;SHT31;64036;48.266;14.192;2022-10-31T09:23:07;12.49;85.73
75457;SHT31;64036;48.266;14.192;2022-10-31T09:25:36;12.55;85.85
75457;SHT31;64036;48.266;14.192;2022-10-31T09:28:04;12.60;85.77
75457;SHT31;64036;48.266;14.192;2022-10-31T09:30:32;12.64;85.64
75457;SHT31;64036;48.266;14.192;2022-10-31T09:33:00;12.67;85.49
75457;SHT31;64036;48.266;14.192;2022-10-31T09:35:37;12.70;84.89
75457;SHT31;64036;48.266;14.192;2022-10-31T09:38:04;12.75;85.41
75457;SHT31;64036;48.266;14.192;2022-10-31T09:43:06;12.93;85.13
75457;SHT31;64036;48.266;14.192;2022-10-31T09:45:41;12.99;84.93
75457;SHT31;64036;48.266;14.192;2022-10-31T09:50:49;13.09;84.80
75457;SHT31;64036;48.266;14.192;2022-10-31T09:55:51;13.19;84.25
75457;SHT31;64036;48.266;14.192;2022-10-31T09:58:22;13.21;84.14
75457;SHT31;64036;48.266;14.192;2022-10-31T10:00:50;13.25;84.08
75457;SHT31;64036;48.266;14.192;2022-10-31T10:08:48;13.46;84.83
75457;SHT31;64036;48.266;14.192;2022-10-31T10:11:19;13.56;84.80
75457;SHT31;64036;48.266;14.192;2022-10-31T10:26:34;13.35;83.74
75457;SHT31;64036;48.266;14.192;2022-10-31T10:31:54;13.44;84.29
75457;SHT31;64036;48.266;14.192;2022-10-31T10:36:58;13.57;84.01
75457;SHT31;64036;48.266;14.192;2022-10-31T10:39:32;13.58;83.60
75457;SHT31;64036;48.266;14.192;2022-10-31T10:42:11;13.52;83.38
75457;SHT31;64036;48.266;14.192;2022-10-31T10:44:58;13.51;83.54
75457;SHT31;64036;48.266;14.192;2022-10-31T10:47:44;13.53;83.56
75457;SHT31;64036;48.266;14.192;2022-10-31T10:50:21;13.60;83.45
75457;SHT31;64036;48.266;14.192;2022-10-31T10:58:58;13.78;83.74
75457;SHT31;64036;48.266;14.192;2022-10-31T11:01:24;13.81;83.70
75457;SHT31;64036;48.266;14.192;2022-10-31T11:03:50;13.86;83.66
75457;SHT31;64036;48.266;14.192;2022-10-31T11:06:19;13.89;83.50
75457;SHT31;64036;48.266;14.192;2022-10-31T11:08:50;13.95;83.34
75457;SHT31;64036;48.266;14.192;2022-10-31T11:13:51;14.03;82.87
75457;SHT31;64036;48.266;14.192;2022-10-31T11:16:29;14.05;82.75
75457;SHT31;64036;48.266;14.192;2022-10-31T11:21:36;14.12;82.35
75457;SHT31;64036;48.266;14.192;2022-10-31T11:24:04;14.08;81.96
75457;SHT31;64036;48.266;14.192;2022-10-31T11:26:41;14.05;82.20
75457;SHT31;64036;48.266;14.192;2022-10-31T11:29:31;14.13;82.39
75457;SHT31;64036;48.266;14.192;2022-10-31T11:31:56;14.19;82.35
75457;SHT31;64036;48.266;14.192;2022-10-31T11:34:29;14.20;82.51
75457;SHT31;64036;48.266;14.192;2022-10-31T11:37:24;14.15;82.22
75457;SHT31;64036;48.266;14.192;2022-10-31T11:39:57;14.07;82.54
75457;SHT31;64036;48.266;14.192;2022-10-31T11:42:29;14.07;82.70
75457;SHT31;64036;48.266;14.192;2022-10-31T11:45:00;14.14;82.52
75457;SHT31;64036;48.266;14.192;2022-10-31T11:47:28;14.18;82.37
75457;SHT31;64036;48.266;14.192;2022-10-31T11:49:56;14.28;82.35
75457;SHT31;64036;48.266;14.192;2022-10-31T11:52:27;14.39;82.05
75457;SHT31;64036;48.266;14.192;2022-10-31T11:54:57;14.46;81.96
75457;SHT31;64036;48.266;14.192;2022-10-31T11:57:43;14.52;81.88
75457;SHT31;64036;48.266;14.192;2022-10-31T12:02:49;14.60;81.83
75457;SHT31;64036;48.266;14.192;2022-10-31T12:05:24;14.64;81.59
75457;SHT31;64036;48.266;14.192;2022-10-31T12:07:57;14.68;81.60
75457;SHT31;64036;48.266;14.192;2022-10-31T12:10:25;14.69;81.53
75457;SHT31;64036;48.266;14.192;2022-10-31T12:13:08;14.72;81.38
75457;SHT31;64036;48.266;14.192;2022-10-31T12:16:17;14.68;81.62
75457;SHT31;64036;48.266;14.192;2022-10-31T12:18:59;14.66;81.79
75457;SHT31;64036;48.266;14.192;2022-10-31T12:24:16;14.77;81.86
75457;SHT31;64036;48.266;14.192;2022-10-31T12:27:02;14.79;81.96
75457;SHT31;64036;48.266;14.192;2022-10-31T12:30:01;14.79;81.82
75457;SHT31;64036;48.266;14.192;2022-10-31T12:32:43;14.82;81.94
75457;SHT31;64036;48.266;14.192;2022-10-31T12:38:23;14.85;81.73
75457;SHT31;64036;48.266;14.192;2022-10-31T12:47:08;14.88;81.46
75457;SHT31;64036;48.266;14.192;2022-10-31T12:56:03;14.83;81.46
75457;SHT31;64036;48.266;14.192;2022-10-31T13:01:12;14.73;81.64
75457;SHT31;64036;48.266;14.192;2022-10-31T13:03:46;14.69;81.56
75457;SHT31;64036;48.266;14.192;2022-10-31T13:06:27;14.73;81.67
75457;SHT31;64036;48.266;14.192;2022-10-31T13:09:01;14.88;81.91
75457;SHT31;64036;48.266;14.192;2022-10-31T13:11:37;15.02;82.03
75457;SHT31;64036;48.266;14.192;2022-10-31T13:17:02;15.12;81.59
75457;SHT31;64036;48.266;14.192;2022-10-31T13:19:31;15.24;81.32
75457;SHT31;64036;48.266;14.192;2022-10-31T13:22:19;15.36;81.11
75457;SHT31;64036;48.266;14.192;2022-10-31T13:24:57;15.34;80.89
75457;SHT31;64036;48.266;14.192;2022-10-31T13:27:28;15.28;81.14
75457;SHT31;64036;48.266;14.192;2022-10-31T13:30:04;15.29;80.92
75457;SHT31;64036;48.266;14.192;2022-10-31T13:32:53;15.30;80.94
75457;SHT31;64036;48.266;14.192;2022-10-31T13:38:41;15.44;81.34
75457;SHT31;64036;48.266;14.192;2022-10-31T13:41:22;15.51;81.10
75457;SHT31;64036;48.266;14.192;2022-10-31T13:46:49;15.51;81.05
75457;SHT31;64036;48.266;14.192;2022-10-31T13:52:16;15.62;80.86
75457;SHT31;64036;48.266;14.192;2022-10-31T13:54:49;15.63;80.77
75457;SHT31;64036;48.266;14.192;2022-10-31T13:59:59;15.56;81.22
75457;SHT31;64036;48.266;14.192;2022-10-31T14:02:48;15.60;81.12
75457;SHT31;64036;48.266;14.192;2022-10-31T14:05:22;15.59;81.11
75457;SHT31;64036;48.266;14.192;2022-10-31T14:07:53;15.61;81.14
75457;SHT31;64036;48.266;14.192;2022-10-31T14:10:46;15.61;81.14
75457;SHT31;64036;48.266;14.192;2022-10-31T14:16:25;15.68;81.12
75457;SHT31;64036;48.266;14.192;2022-10-31T14:19:06;15.70;81.08
75457;SHT31;64036;48.266;14.192;2022-10-31T14:21:40;15.71;80.82
75457;SHT31;64036;48.266;14.192;2022-10-31T14:29:48;15.84;80.54
75457;SHT31;64036;48.266;14.192;2022-10-31T14:32:18;15.79;80.52
75457;SHT31;64036;48.266;14.192;2022-10-31T14:34:57;15.65;80.58
75457;SHT31;64036;48.266;14.192;2022-10-31T14:40:21;15.47;81.15
75457;SHT31;64036;48.266;14.192;2022-10-31T14:46:04;15.35;81.33
75457;SHT31;64036;48.266;14.192;2022-10-31T14:51:47;15.20;81.37
75457;SHT31;64036;48.266;14.192;2022-10-31T14:54:23;15.15;81.41
75457;SHT31;64036;48.266;14.192;2022-10-31T14:56:57;15.13;81.41
75457;SHT31;64036;48.266;14.192;2022-10-31T14:59:30;15.10;81.40
75457;SHT31;64036;48.266;14.192;2022-10-31T15:02:21;15.08;81.34
75457;SHT31;64036;48.266;14.192;2022-10-31T15:04:59;14.98;81.35
75457;SHT31;64036;48.266;14.192;2022-10-31T15:07:32;14.88;81.61
75457;SHT31;64036;48.266;14.192;2022-10-31T15:10:00;14.79;81.73
75457;SHT31;64036;48.266;14.192;2022-10-31T15:12:32;14.73;81.86
75457;SHT31;64036;48.266;14.192;2022-10-31T15:15:25;14.68;81.91
75457;SHT31;64036;48.266;14.192;2022-10-31T15:20:24;14.52;81.81
75457;SHT31;64036;48.266;14.192;2022-10-31T15:22:55;14.42;82.03
75457;SHT31;64036;48.266;14.192;2022-10-31T15:25:22;14.30;82.45
75457;SHT31;64036;48.266;14.192;2022-10-31T15:27:52;14.18;82.74
75457;SHT31;64036;48.266;14.192;2022-10-31T15:30:22;14.08;82.85
75457;SHT31;64036;48.266;14.192;2022-10-31T15:32:50;13.97;82.89
75457;SHT31;64036;48.266;14.192;2022-10-31T15:35:25;13.90;83.01
75457;SHT31;64036;48.266;14.192;2022-10-31T15:37:54;13.86;82.99
75457;SHT31;64036;48.266;14.192;2022-10-31T15:40:23;13.83;83.08
75457;SHT31;64036;48.266;14.192;2022-10-31T15:42:55;13.77;83.11
75457;SHT31;64036;48.266;14.192;2022-10-31T15:45:27;13.72;83.26
75457;SHT31;64036;48.266;14.192;2022-10-31T15:47:55;13.66;83.30
75457;SHT31;64036;48.266;14.192;2022-10-31T15:53:06;13.52;83.35
75457;SHT31;64036;48.266;14.192;2022-10-31T15:55:48;13.41;83.43
75457;SHT31;64036;48.266;14.192;2022-10-31T15:58:23;13.33;83.75
75457;SHT31;64036;48.266;14.192;2022-10-31T16:01:00;13.30;83.91
75457;SHT31;64036;48.266;14.192;2022-10-31T16:03:32;13.24;83.96
75457;SHT31;64036;48.266;14.192;2022-10-31T16:06:00;13.20;84.21
75457;SHT31;64036;48.266;14.192;2022-10-31T16:10:55;13.12;84.64
75457;SHT31;64036;48.266;14.192;2022-10-31T16:13:35;13.08;84.86
75457;SHT31;64036;48.266;14.192;2022-10-31T16:16:11;13.06;85.02
75457;SHT31;64036;48.266;14.192;2022-10-31T16:18:39;13.01;85.00
75457;SHT31;64036;48.266;14.192;2022-10-31T16:21:07;12.97;85.23
75457;SHT31;64036;48.266;14.192;2022-10-31T16:23:34;12.94;85.37
75457;SHT31;64036;48.266;14.192;2022-10-31T16:26:05;12.90;85.40
75457;SHT31;64036;48.266;14.192;2022-10-31T16:28:32;12.86;85.48
75457;SHT31;64036;48.266;14.192;2022-10-31T16:30:58;12.82;85.62
75457;SHT31;64036;48.266;14.192;2022-10-31T16:33:35;12.78;85.73
75457;SHT31;64036;48.266;14.192;2022-10-31T16:38:52;12.69;85.98
75457;SHT31;64036;48.266;14.192;2022-10-31T16:41:19;12.66;85.86
75457;SHT31;64036;48.266;14.192;2022-10-31T16:43:45;12.60;85.84
75457;SHT31;64036;48.266;14.192;2022-10-31T16:46:15;12.56;86.10
75457;SHT31;64036;48.266;14.192;2022-10-31T16:48:48;12.53;86.34
75457;SHT31;64036;48.266;14.192;2022-10-31T16:51:14;12.51;86.49
75457;SHT31;64036;48.266;14.192;2022-10-31T16:53:40;12.49;86.60
75457;SHT31;64036;48.266;14.192;2022-10-31T16:56:05;12.45;86.80
75457;SHT31;64036;48.266;14.192;2022-10-31T16:59:00;12.41;86.79
75457;SHT31;64036;48.266;14.192;2022-10-31T17:01:29;12.36;86.90
75457;SHT31;64036;48.266;14.192;2022-10-31T17:03:56;12.32;87.01
75457;SHT31;64036;48.266;14.192;2022-10-31T17:06:22;12.29;87.01
75457;SHT31;64036;48.266;14.192;2022-10-31T17:08:47;12.26;87.24
75457;SHT31;64036;48.266;14.192;2022-10-31T17:11:15;12.22;87.47
75457;SHT31;64036;48.266;14.192;2022-10-31T17:13:44;12.21;87.80
75457;SHT31;64036;48.266;14.192;2022-10-31T17:16:09;12.20;88.06
75457;SHT31;64036;48.266;14.192;2022-10-31T17:18:39;12.19;88.29
75457;SHT31;64036;48.266;14.192;2022-10-31T17:21:05;12.20;88.45
75457;SHT31;64036;48.266;14.192;2022-10-31T17:23:31;12.21;88.67
75457;SHT31;64036;48.266;14.192;2022-10-31T17:25:57;12.21;88.80
75457;SHT31;64036;48.266;14.192;2022-10-31T17:28:23;12.22;88.96
75457;SHT31;64036;48.266;14.192;2022-10-31T17:30:52;12.21;89.11
75457;SHT31;64036;48.266;14.192;2022-10-31T17:33:19;12.23;89.26
75457;SHT31;64036;48.266;14.192;2022-10-31T17:35:46;12.22;89.45
75457;SHT31;64036;48.266;14.192;2022-10-31T17:38:11;12.19;89.70
75457;SHT31;64036;48.266;14.192;2022-10-31T17:40:38;12.15;89.87
75457;SHT31;64036;48.266;14.192;2022-10-31T17:43:06;12.11;90.04
75457;SHT31;64036;48.266;14.192;2022-10-31T17:45:34;12.09;90.19
75457;SHT31;64036;48.266;14.192;2022-10-31T17:48:03;12.05;90.37
75457;SHT31;64036;48.266;14.192;2022-10-31T17:50:28;12.05;90.41
75457;SHT31;64036;48.266;14.192;2022-10-31T17:52:54;12.05;90.49
75457;SHT31;64036;48.266;14.192;2022-10-31T17:55:22;12.05;90.59
75457;SHT31;64036;48.266;14.192;2022-10-31T17:57:48;12.04;90.59
75457;SHT31;64036;48.266;14.192;2022-10-31T18:00:15;12.05;90.61
75457;SHT31;64036;48.266;14.192;2022-10-31T18:02:45;12.02;90.59
75457;SHT31;64036;48.266;14.192;2022-10-31T18:05:12;12.01;90.62
75457;SHT31;64036;48.266;14.192;2022-10-31T18:07:37;12.00;90.59
75457;SHT31;64036;48.266;14.192;2022-10-31T18:10:03;12.01;90.52